sensor_id;sensor_type;location;lat;lon;timestamp;pressure;altitude;pressure_sealevel;temperature;humidity
85746;BME280;76186;47.590;19.194;2024-03-06T00:00:35;99631.41;;;4.15;98.42
85746;BME280;76186;47.590;19.194;2024-03-06T00:01:36;99631.41;;;4.15;98.77
85746;BME280;76186;47.590;19.194;2024-03-06T00:02:37;99632.75;;;4.12;98.05
85746;BME280;76186;47.590;19.194;2024-03-06T00:03:37;99635.16;;;4.08;98.27
85746;BME280;76186;47.590;19.194;2024-03-06T00:04:38;99638.38;;;4.00;97.85
85746;BME280;76186;47.590;19.194;2024-03-06T00:05:39;99635.16;;;4.03;98.63
85746;BME280;76186;47.590;19.194;2024-03-06T00:06:39;99636.75;;;4.04;98.56
85746;BME280;76186;47.590;19.194;2024-03-06T00:07:40;99633.81;;;4.01;98.26
85746;BME280;76186;47.590;19.194;2024-03-06T00:08:40;99636.75;;;4.04;98.89
85746;BME280;76186;47.590;19.194;2024-03-06T00:09:41;99627.59;;;4.05;99.18
85746;BME280;76186;47.590;19.194;2024-03-06T00:10:42;99640.00;;;4.06;99.05
85746;BME280;76186;47.590;19.194;2024-03-06T00:11:42;99634.09;;;3.99;98.27
85746;BME280;76186;47.590;19.194;2024-03-06T00:12:43;99635.44;;;4.02;98.79
85746;BME280;76186;47.590;19.194;2024-03-06T00:13:44;99633.00;;;4.00;98.45
85746;BME280;76186;47.590;19.194;2024-03-06T00:14:45;99632.47;;;4.08;98.99
85746;BME280;76186;47.590;19.194;2024-03-06T00:15:45;99632.72;;;4.07;98.32
85746;BME280;76186;47.590;19.194;2024-03-06T00:16:46;99634.91;;;4.15;98.51
85746;BME280;76186;47.590;19.194;2024-03-06T00:17:47;99628.47;;;4.31;98.53
85746;BME280;76186;47.590;19.194;2024-03-06T00:18:48;99623.63;;;4.28;98.52
85746;BME280;76186;47.590;19.194;2024-03-06T00:19:49;99626.56;;;4.42;98.38
85746;BME280;76186;47.590;19.194;2024-03-06T00:20:49;99638.69;;;4.34;98.15
85746;BME280;76186;47.590;19.194;2024-03-06T00:21:50;99634.66;;;4.32;97.77
85746;BME280;76186;47.590;19.194;2024-03-06T00:22:50;99640.59;;;4.29;97.07
85746;BME280;76186;47.590;19.194;2024-03-06T00:23:51;99637.34;;;4.22;97.22
85746;BME280;76186;47.590;19.194;2024-03-06T00:24:51;99632.22;;;4.25;96.78
85746;BME280;76186;47.590;19.194;2024-03-06T00:25:52;99628.16;;;4.13;97.14
85746;BME280;76186;47.590;19.194;2024-03-06T00:26:53;99633.00;;;4.05;96.32
85746;BME280;76186;47.590;19.194;2024-03-06T00:27:53;99639.19;;;3.96;96.99
85746;BME280;76186;47.590;19.194;2024-03-06T00:28:54;99636.72;;;3.84;96.49
85746;BME280;76186;47.590;19.194;2024-03-06T00:29:55;99630.50;;;3.79;96.86
85746;BME280;76186;47.590;19.194;2024-03-06T00:30:55;99635.09;;;3.73;96.87
85746;BME280;76186;47.590;19.194;2024-03-06T00:31:56;99631.84;;;3.66;97.10
85746;BME280;76186;47.590;19.194;2024-03-06T00:32:57;99640.13;;;3.59;97.35
85746;BME280;76186;47.590;19.194;2024-03-06T00:33:59;99645.75;;;3.53;96.93
85746;BME280;76186;47.590;19.194;2024-03-06T00:35:00;99641.72;;;3.50;97.45
85746;BME280;76186;47.590;19.194;2024-03-06T00:36:00;99634.72;;;3.49;96.89
85746;BME280;76186;47.590;19.194;2024-03-06T00:37:01;99637.66;;;3.48;97.18
85746;BME280;76186;47.590;19.194;2024-03-06T00:38:02;99638.47;;;3.48;98.45
85746;BME280;76186;47.590;19.194;2024-03-06T00:39:03;99642.22;;;3.47;98.80
85746;BME280;76186;47.590;19.194;2024-03-06T00:40:05;99642.50;;;3.51;98.09
85746;BME280;76186;47.590;19.194;2024-03-06T00:41:06;99644.41;;;3.55;99.12
85746;BME280;76186;47.590;19.194;2024-03-06T00:42:07;99642.78;;;3.49;98.92
85746;BME280;76186;47.590;19.194;2024-03-06T00:43:09;99641.41;;;3.47;97.98
85746;BME280;76186;47.590;19.194;2024-03-06T00:44:09;99643.03;;;3.48;98.82
85746;BME280;76186;47.590;19.194;2024-03-06T00:45:10;99648.19;;;3.54;98.71
85746;BME280;76186;47.590;19.194;2024-03-06T00:46:11;99646.28;;;3.50;98.46
85746;BME280;76186;47.590;19.194;2024-03-06T00:47:12;99651.13;;;3.53;98.34
85746;BME280;76186;47.590;19.194;2024-03-06T00:48:12;99651.13;;;3.53;98.10
85746;BME280;76186;47.590;19.194;2024-03-06T00:49:13;99654.34;;;3.45;97.55
85746;BME280;76186;47.590;19.194;2024-03-06T00:50:13;99653.78;;;3.48;98.75
85746;BME280;76186;47.590;19.194;2024-03-06T00:51:16;99647.09;;;3.50;99.22
85746;BME280;76186;47.590;19.194;2024-03-06T00:52:17;99653.91;;;3.68;99.49
85746;BME280;76186;47.590;19.194;2024-03-06T00:53:17;99656.06;;;3.71;99.33
85746;BME280;76186;47.590;19.194;2024-03-06T00:54:18;99651.22;;;3.73;99.50
85746;BME280;76186;47.590;19.194;2024-03-06T00:55:19;99655.03;;;3.92;99.94
85746;BME280;76186;47.590;19.194;2024-03-06T00:56:19;99656.88;;;3.77;99.08
85746;BME280;76186;47.590;19.194;2024-03-06T00:57:20;99653.38;;;3.81;98.40
85746;BME280;76186;47.590;19.194;2024-03-06T00:58:20;99657.44;;;3.84;98.79
85746;BME280;76186;47.590;19.194;2024-03-06T00:59:21;99651.47;;;3.77;99.28
85746;BME280;76186;47.590;19.194;2024-03-06T01:00:21;99657.44;;;3.89;99.54
85746;BME280;76186;47.590;19.194;2024-03-06T01:01:22;99644.84;;;4.10;99.58
85746;BME280;76186;47.590;19.194;2024-03-06T01:02:23;99654.53;;;4.05;99.54
85746;BME280;76186;47.590;19.194;2024-03-06T01:03:23;99659.91;;;4.05;98.53
85746;BME280;76186;47.590;19.194;2024-03-06T01:04:24;99654.22;;;3.92;98.31
85746;BME280;76186;47.590;19.194;2024-03-06T01:05:25;99651.28;;;3.98;98.76
85746;BME280;76186;47.590;19.194;2024-03-06T01:06:25;99652.06;;;3.89;99.14
85746;BME280;76186;47.590;19.194;2024-03-06T01:07:26;99644.56;;;3.96;98.19
85746;BME280;76186;47.590;19.194;2024-03-06T01:08:26;99644.25;;;3.87;98.01
85746;BME280;76186;47.590;19.194;2024-03-06T01:09:27;99647.72;;;3.78;97.54
85746;BME280;76186;47.590;19.194;2024-03-06T01:10:27;99645.00;;;3.67;97.44
85746;BME280;76186;47.590;19.194;2024-03-06T01:11:28;99650.13;;;3.64;97.41
85746;BME280;76186;47.590;19.194;2024-03-06T01:12:29;99646.03;;;3.56;98.07
85746;BME280;76186;47.590;19.194;2024-03-06T01:13:29;99649.56;;;3.62;97.79
85746;BME280;76186;47.590;19.194;2024-03-06T01:14:30;99641.81;;;3.70;98.67
85746;BME280;76186;47.590;19.194;2024-03-06T01:15:31;99642.06;;;3.69;99.15
85746;BME280;76186;47.590;19.194;2024-03-06T01:16:33;99648.56;;;3.88;98.89
85746;BME280;76186;47.590;19.194;2024-03-06T01:17:34;99649.38;;;3.89;98.87
85746;BME280;76186;47.590;19.194;2024-03-06T01:18:34;99647.50;;;3.89;98.43
85746;BME280;76186;47.590;19.194;2024-03-06T01:19:35;99645.91;;;3.98;98.65
85746;BME280;76186;47.590;19.194;2024-03-06T01:20:35;99644.59;;;4.11;98.75
85746;BME280;76186;47.590;19.194;2024-03-06T01:21:38;99645.38;;;3.96;98.57
85746;BME280;76186;47.590;19.194;2024-03-06T01:22:38;99642.66;;;3.91;97.74
85746;BME280;76186;47.590;19.194;2024-03-06T01:23:39;99641.59;;;3.97;98.66
85746;BME280;76186;47.590;19.194;2024-03-06T01:24:39;99645.63;;;3.90;98.54
85746;BME280;76186;47.590;19.194;2024-03-06T01:25:40;99646.44;;;3.90;98.62
85746;BME280;76186;47.590;19.194;2024-03-06T01:26:41;99645.63;;;4.05;98.63
85746;BME280;76186;47.590;19.194;2024-03-06T01:27:41;99646.16;;;3.92;98.65
85746;BME280;76186;47.590;19.194;2024-03-06T01:28:42;99642.06;;;3.79;98.15
85746;BME280;76186;47.590;19.194;2024-03-06T01:29:42;99640.72;;;3.71;97.51
85746;BME280;76186;47.590;19.194;2024-03-06T01:30:43;99645.56;;;3.69;98.37
85746;BME280;76186;47.590;19.194;2024-03-06T01:31:44;99643.91;;;3.58;97.73
85746;BME280;76186;47.590;19.194;2024-03-06T01:32:46;99654.38;;;3.55;98.00
85746;BME280;76186;47.590;19.194;2024-03-06T01:33:47;99646.00;;;3.46;97.83
85746;BME280;76186;47.590;19.194;2024-03-06T01:34:47;99648.69;;;3.41;98.04
85746;BME280;76186;47.590;19.194;2024-03-06T01:35:48;99647.28;;;3.33;97.75
85746;BME280;76186;47.590;19.194;2024-03-06T01:36:49;99644.56;;;3.28;97.70
85746;BME280;76186;47.590;19.194;2024-03-06T01:37:50;99653.19;;;3.30;98.32
85746;BME280;76186;47.590;19.194;2024-03-06T01:38:50;99655.53;;;3.22;98.90
85746;BME280;76186;47.590;19.194;2024-03-06T01:39:51;99651.25;;;3.21;98.81
85746;BME280;76186;47.590;19.194;2024-03-06T01:41:17;99657.94;;;3.18;98.71
85746;BME280;76186;47.590;19.194;2024-03-06T01:42:17;99653.66;;;3.17;98.58
85746;BME280;76186;47.590;19.194;2024-03-06T01:43:23;99652.88;;;3.22;100.00
85746;BME280;76186;47.590;19.194;2024-03-06T01:44:24;99656.34;;;3.22;100.00
85746;BME280;76186;47.590;19.194;2024-03-06T01:45:24;99646.72;;;3.26;100.00
85746;BME280;76186;47.590;19.194;2024-03-06T01:46:25;99647.53;;;3.27;100.00
85746;BME280;76186;47.590;19.194;2024-03-06T01:47:25;99651.03;;;3.32;100.00
85746;BME280;76186;47.590;19.194;2024-03-06T01:48:28;99651.53;;;3.24;100.00
85746;BME280;76186;47.590;19.194;2024-03-06T01:49:31;99660.41;;;3.25;100.00
85746;BME280;76186;47.590;19.194;2024-03-06T01:50:31;99655.28;;;3.23;100.00
85746;BME280;76186;47.590;19.194;2024-03-06T01:51:32;99653.94;;;3.16;99.95
85746;BME280;76186;47.590;19.194;2024-03-06T01:52:33;99663.53;;;3.07;98.67
85746;BME280;76186;47.590;19.194;2024-03-06T01:53:35;99655.72;;;3.05;99.64
85746;BME280;76186;47.590;19.194;2024-03-06T01:54:36;99662.44;;;3.02;99.55
85746;BME280;76186;47.590;19.194;2024-03-06T01:55:37;99659.72;;;2.97;98.84
85746;BME280;76186;47.590;19.194;2024-03-06T01:56:39;99659.94;;;2.91;98.18
85746;BME280;76186;47.590;19.194;2024-03-06T01:57:44;99661.53;;;2.92;98.45
85746;BME280;76186;47.590;19.194;2024-03-06T01:58:46;99658.84;;;2.92;98.86
85746;BME280;76186;47.590;19.194;2024-03-06T01:59:48;99667.25;;;3.00;100.00
85746;BME280;76186;47.590;19.194;2024-03-06T02:00:50;99663.28;;;3.08;100.00
85746;BME280;76186;47.590;19.194;2024-03-06T02:01:53;99660.06;;;3.11;100.00
85746;BME280;76186;47.590;19.194;2024-03-06T02:02:54;99658.22;;;3.22;100.00
85746;BME280;76186;47.590;19.194;2024-03-06T02:03:55;99661.81;;;3.32;100.00
85746;BME280;76186;47.590;19.194;2024-03-06T02:04:56;99663.41;;;3.33;100.00
85746;BME280;76186;47.590;19.194;2024-03-06T02:06:00;99658.03;;;3.33;100.00
85746;BME280;76186;47.590;19.194;2024-03-06T02:07:02;99659.94;;;3.38;100.00
85746;BME280;76186;47.590;19.194;2024-03-06T02:08:04;99657.53;;;3.36;100.00
85746;BME280;76186;47.590;19.194;2024-03-06T02:09:05;99661.25;;;3.30;100.00
85746;BME280;76186;47.590;19.194;2024-03-06T02:10:08;99654.28;;;3.34;100.00
85746;BME280;76186;47.590;19.194;2024-03-06T02:11:10;99653.25;;;3.41;100.00
85746;BME280;76186;47.590;19.194;2024-03-06T02:12:12;99658.34;;;3.37;100.00
85746;BME280;76186;47.590;19.194;2024-03-06T02:13:13;99656.13;;;3.29;99.27
85746;BME280;76186;47.590;19.194;2024-03-06T02:14:14;99652.03;;;3.16;99.77
85746;BME280;76186;47.590;19.194;2024-03-06T02:15:15;99655.53;;;3.17;99.78
85746;BME280;76186;47.590;19.194;2024-03-06T02:16:15;99658.19;;;3.12;98.53
85746;BME280;76186;47.590;19.194;2024-03-06T02:17:16;99657.66;;;3.10;99.47
85746;BME280;76186;47.590;19.194;2024-03-06T02:18:16;99653.84;;;3.05;98.79
85746;BME280;76186;47.590;19.194;2024-03-06T02:19:17;99658.69;;;3.03;99.45
85746;BME280;76186;47.590;19.194;2024-03-06T02:20:22;99660.00;;;3.01;99.47
85746;BME280;76186;47.590;19.194;2024-03-06T02:21:24;99658.63;;;2.98;99.18
85746;BME280;76186;47.590;19.194;2024-03-06T02:22:25;99646.53;;;2.96;99.08
85746;BME280;76186;47.590;19.194;2024-03-06T02:23:26;99648.69;;;2.99;100.00
85746;BME280;76186;47.590;19.194;2024-03-06T02:24:26;99642.22;;;2.95;99.73
85746;BME280;76186;47.590;19.194;2024-03-06T02:25:28;99652.94;;;2.90;99.50
85746;BME280;76186;47.590;19.194;2024-03-06T02:26:28;99643.25;;;2.89;99.82
85746;BME280;76186;47.590;19.194;2024-03-06T02:27:29;99646.47;;;2.86;100.00
85746;BME280;76186;47.590;19.194;2024-03-06T02:28:29;99645.63;;;2.80;99.69
85746;BME280;76186;47.590;19.194;2024-03-06T02:29:30;99648.28;;;2.75;99.33
85746;BME280;76186;47.590;19.194;2024-03-06T02:30:30;99654.72;;;2.74;99.24
85746;BME280;76186;47.590;19.194;2024-03-06T02:31:36;99651.19;;;2.68;99.28
85746;BME280;76186;47.590;19.194;2024-03-06T02:32:37;99653.81;;;2.63;99.02
85746;BME280;76186;47.590;19.194;2024-03-06T02:33:38;99650.56;;;2.61;98.99
85746;BME280;76186;47.590;19.194;2024-03-06T02:34:38;99648.69;;;2.57;98.91
85746;BME280;76186;47.590;19.194;2024-03-06T02:35:39;99649.75;;;2.56;99.11
85746;BME280;76186;47.590;19.194;2024-03-06T02:36:40;99648.19;;;2.65;99.82
85746;BME280;76186;47.590;19.194;2024-03-06T02:37:43;99649.03;;;2.70;100.00
85746;BME280;76186;47.590;19.194;2024-03-06T02:38:45;99654.84;;;2.94;100.00
85746;BME280;76186;47.590;19.194;2024-03-06T02:39:46;99654.00;;;2.89;100.00
85746;BME280;76186;47.590;19.194;2024-03-06T02:40:46;99649.69;;;2.83;100.00
85746;BME280;76186;47.590;19.194;2024-03-06T02:41:48;99652.41;;;2.93;100.00
85746;BME280;76186;47.590;19.194;2024-03-06T02:42:49;99652.13;;;2.89;100.00
85746;BME280;76186;47.590;19.194;2024-03-06T02:43:49;99648.91;;;2.87;100.00
85746;BME280;76186;47.590;19.194;2024-03-06T02:44:50;99651.81;;;2.81;99.86
85746;BME280;76186;47.590;19.194;2024-03-06T02:45:51;99646.41;;;2.76;100.00
85746;BME280;76186;47.590;19.194;2024-03-06T02:46:51;99647.16;;;2.71;100.00
85746;BME280;76186;47.590;19.194;2024-03-06T02:47:52;99647.94;;;2.66;99.93
85746;BME280;76186;47.590;19.194;2024-03-06T02:48:52;99652.78;;;2.69;100.00
85746;BME280;76186;47.590;19.194;2024-03-06T02:49:53;99648.50;;;2.68;100.00
85746;BME280;76186;47.590;19.194;2024-03-06T02:50:54;99651.72;;;2.70;100.00
85746;BME280;76186;47.590;19.194;2024-03-06T02:51:55;99653.81;;;2.63;100.00
85746;BME280;76186;47.590;19.194;2024-03-06T02:52:55;99652.78;;;2.69;100.00
85746;BME280;76186;47.590;19.194;2024-03-06T02:53:56;99652.00;;;2.69;100.00
85746;BME280;76186;47.590;19.194;2024-03-06T02:54:57;99649.34;;;2.74;100.00
85746;BME280;76186;47.590;19.194;2024-03-06T02:55:57;99646.97;;;2.78;100.00
85746;BME280;76186;47.590;19.194;2024-03-06T02:56:58;99653.41;;;2.77;100.00
85746;BME280;76186;47.590;19.194;2024-03-06T02:58:02;99654.41;;;2.70;100.00
85746;BME280;76186;47.590;19.194;2024-03-06T02:59:02;99645.56;;;2.70;100.00
85746;BME280;76186;47.590;19.194;2024-03-06T03:00:04;99647.38;;;2.59;100.00
85746;BME280;76186;47.590;19.194;2024-03-06T03:01:04;99654.31;;;2.60;99.46
85746;BME280;76186;47.590;19.194;2024-03-06T03:02:05;99646.03;;;2.62;100.00
85746;BME280;76186;47.590;19.194;2024-03-06T03:03:06;99647.38;;;2.64;100.00
85746;BME280;76186;47.590;19.194;2024-03-06T03:04:06;99655.69;;;2.63;100.00
85746;BME280;76186;47.590;19.194;2024-03-06T03:05:08;99656.44;;;2.53;99.74
85746;BME280;76186;47.590;19.194;2024-03-06T03:06:08;99653.97;;;2.47;99.98
85746;BME280;76186;47.590;19.194;2024-03-06T03:07:09;99651.78;;;2.44;99.96
85746;BME280;76186;47.590;19.194;2024-03-06T03:08:10;99656.59;;;2.42;99.24
85746;BME280;76186;47.590;19.194;2024-03-06T03:09:11;99653.66;;;2.43;99.99
85746;BME280;76186;47.590;19.194;2024-03-06T03:10:12;99650.66;;;2.40;99.60
85746;BME280;76186;47.590;19.194;2024-03-06T03:11:12;99652.03;;;2.42;100.00
85746;BME280;76186;47.590;19.194;2024-03-06T03:12:13;99648.81;;;2.40;100.00
85746;BME280;76186;47.590;19.194;2024-03-06T03:13:14;99654.97;;;2.41;100.00
85746;BME280;76186;47.590;19.194;2024-03-06T03:14:14;99657.91;;;2.39;100.00
85746;BME280;76186;47.590;19.194;2024-03-06T03:15:15;99660.59;;;2.39;100.00
85746;BME280;76186;47.590;19.194;2024-03-06T03:16:17;99661.97;;;2.42;100.00
85746;BME280;76186;47.590;19.194;2024-03-06T03:17:18;99673.75;;;2.41;100.00
85746;BME280;76186;47.590;19.194;2024-03-06T03:18:19;99661.72;;;2.43;100.00
85746;BME280;76186;47.590;19.194;2024-03-06T03:19:20;99667.34;;;2.42;100.00
85746;BME280;76186;47.590;19.194;2024-03-06T03:20:21;99662.78;;;2.42;100.00
85746;BME280;76186;47.590;19.194;2024-03-06T03:21:21;99659.28;;;2.42;100.00
85746;BME280;76186;47.590;19.194;2024-03-06T03:22:22;99662.78;;;2.42;100.00
85746;BME280;76186;47.590;19.194;2024-03-06T03:23:23;99662.56;;;2.49;100.00
85746;BME280;76186;47.590;19.194;2024-03-06T03:24:24;99662.88;;;2.52;100.00
85746;BME280;76186;47.590;19.194;2024-03-06T03:25:28;99662.31;;;2.50;100.00
85746;BME280;76186;47.590;19.194;2024-03-06T03:26:28;99660.41;;;2.46;100.00
85746;BME280;76186;47.590;19.194;2024-03-06T03:27:29;99655.84;;;2.46;100.00
85746;BME280;76186;47.590;19.194;2024-03-06T03:28:29;99663.94;;;2.51;100.00
85746;BME280;76186;47.590;19.194;2024-03-06T03:29:30;99657.97;;;2.44;100.00
85746;BME280;76186;47.590;19.194;2024-03-06T03:30:31;99662.28;;;2.45;100.00
85746;BME280;76186;47.590;19.194;2024-03-06T03:31:32;99665.72;;;2.41;100.00
85746;BME280;76186;47.590;19.194;2024-03-06T03:32:33;99672.41;;;2.38;100.00
85746;BME280;76186;47.590;19.194;2024-03-06T03:33:34;99667.84;;;2.38;100.00
85746;BME280;76186;47.590;19.194;2024-03-06T03:34:34;99666.44;;;2.31;100.00
85746;BME280;76186;47.590;19.194;2024-03-06T03:35:35;99682.56;;;2.31;100.00
85746;BME280;76186;47.590;19.194;2024-03-06T03:36:42;99676.56;;;2.24;100.00
85746;BME280;76186;47.590;19.194;2024-03-06T03:37:43;99675.81;;;2.28;100.00
85746;BME280;76186;47.590;19.194;2024-03-06T03:38:44;99677.38;;;2.24;100.00
85746;BME280;76186;47.590;19.194;2024-03-06T03:39:44;99681.69;;;2.25;100.00
85746;BME280;76186;47.590;19.194;2024-03-06T03:40:45;99677.84;;;2.16;100.00
85746;BME280;76186;47.590;19.194;2024-03-06T03:41:46;99685.56;;;2.13;100.00
85746;BME280;76186;47.590;19.194;2024-03-06T03:42:47;99683.41;;;2.10;99.99
85746;BME280;76186;47.590;19.194;2024-03-06T03:43:48;99689.00;;;2.08;100.00
85746;BME280;76186;47.590;19.194;2024-03-06T03:44:49;99684.25;;;2.15;100.00
85746;BME280;76186;47.590;19.194;2024-03-06T03:45:50;99684.94;;;2.06;100.00
85746;BME280;76186;47.590;19.194;2024-03-06T03:46:50;99693.38;;;2.14;100.00
85746;BME280;76186;47.590;19.194;2024-03-06T03:47:51;99692.81;;;2.12;100.00
85746;BME280;76186;47.590;19.194;2024-03-06T03:48:51;99693.94;;;2.16;100.00
85746;BME280;76186;47.590;19.194;2024-03-06T03:49:52;99691.56;;;2.20;100.00
85746;BME280;76186;47.590;19.194;2024-03-06T03:50:53;99694.00;;;2.21;100.00
85746;BME280;76186;47.590;19.194;2024-03-06T03:51:53;99686.25;;;2.25;100.00
85746;BME280;76186;47.590;19.194;2024-03-06T03:52:54;99698.03;;;2.24;100.00
85746;BME280;76186;47.590;19.194;2024-03-06T03:53:54;99692.16;;;2.27;100.00
85746;BME280;76186;47.590;19.194;2024-03-06T03:54:55;99690.56;;;2.26;100.00
85746;BME280;76186;47.590;19.194;2024-03-06T03:55:55;99688.88;;;2.20;100.00
85746;BME280;76186;47.590;19.194;2024-03-06T03:56:56;99690.00;;;2.24;100.00
85746;BME280;76186;47.590;19.194;2024-03-06T03:57:59;99693.06;;;2.37;100.00
85746;BME280;76186;47.590;19.194;2024-03-06T03:59:00;99692.97;;;2.27;100.00
85746;BME280;76186;47.590;19.194;2024-03-06T04:00:00;99697.03;;;2.30;100.00
85746;BME280;76186;47.590;19.194;2024-03-06T04:01:01;99690.56;;;2.26;100.00
85746;BME280;76186;47.590;19.194;2024-03-06T04:02:02;99696.97;;;2.25;100.00
85746;BME280;76186;47.590;19.194;2024-03-06T04:03:03;99693.53;;;2.29;100.00
85746;BME280;76186;47.590;19.194;2024-03-06T04:04:04;99704.03;;;2.31;100.00
85746;BME280;76186;47.590;19.194;2024-03-06T04:05:05;99695.44;;;2.34;100.00
85746;BME280;76186;47.590;19.194;2024-03-06T04:06:05;99697.13;;;2.40;100.00
85746;BME280;76186;47.590;19.194;2024-03-06T04:07:06;99688.56;;;2.43;100.00
85746;BME280;76186;47.590;19.194;2024-03-06T04:08:07;99691.25;;;2.43;100.00
85746;BME280;76186;47.590;19.194;2024-03-06T04:09:08;99696.09;;;2.46;100.00
85746;BME280;76186;47.590;19.194;2024-03-06T04:10:10;99698.72;;;2.41;100.00
85746;BME280;76186;47.590;19.194;2024-03-06T04:11:11;99699.53;;;2.42;100.00
85746;BME280;76186;47.590;19.194;2024-03-06T04:12:11;99688.19;;;2.34;100.00
85746;BME280;76186;47.590;19.194;2024-03-06T04:13:14;99701.88;;;2.33;100.00
85746;BME280;76186;47.590;19.194;2024-03-06T04:14:15;99700.47;;;2.25;100.00
85746;BME280;76186;47.590;19.194;2024-03-06T04:15:16;99703.72;;;2.27;100.00
85746;BME280;76186;47.590;19.194;2024-03-06T04:16:17;99702.41;;;2.30;100.00
85746;BME280;76186;47.590;19.194;2024-03-06T04:17:18;99702.66;;;2.28;100.00
85746;BME280;76186;47.590;19.194;2024-03-06T04:18:19;99707.78;;;2.30;100.00
85746;BME280;76186;47.590;19.194;2024-03-06T04:19:19;99712.66;;;2.38;100.00
85746;BME280;76186;47.590;19.194;2024-03-06T04:20:20;99710.88;;;2.49;100.00
85746;BME280;76186;47.590;19.194;2024-03-06T04:21:20;99709.47;;;2.41;100.00
85746;BME280;76186;47.590;19.194;2024-03-06T04:22:22;99709.47;;;2.41;100.00
85746;BME280;76186;47.590;19.194;2024-03-06T04:23:23;99708.09;;;2.38;100.00
85746;BME280;76186;47.590;19.194;2024-03-06T04:24:24;99708.91;;;2.39;100.00
85746;BME280;76186;47.590;19.194;2024-03-06T04:25:24;99705.16;;;2.40;100.00
85746;BME280;76186;47.590;19.194;2024-03-06T04:26:25;99702.72;;;2.38;100.00
85746;BME280;76186;47.590;19.194;2024-03-06T04:27:25;99704.25;;;2.56;100.00
85746;BME280;76186;47.590;19.194;2024-03-06T04:28:26;99712.22;;;2.46;100.00
85746;BME280;76186;47.590;19.194;2024-03-06T04:29:27;99710.03;;;2.43;100.00
85746;BME280;76186;47.590;19.194;2024-03-06T04:30:28;99713.16;;;2.35;100.00
85746;BME280;76186;47.590;19.194;2024-03-06T04:31:28;99710.78;;;2.38;100.00
85746;BME280;76186;47.590;19.194;2024-03-06T04:32:29;99710.09;;;2.48;100.00
85746;BME280;76186;47.590;19.194;2024-03-06T04:33:29;99704.81;;;2.58;100.00
85746;BME280;76186;47.590;19.194;2024-03-06T04:34:30;99706.56;;;2.75;100.00
85746;BME280;76186;47.590;19.194;2024-03-06T04:35:31;99703.34;;;2.78;100.00
85746;BME280;76186;47.590;19.194;2024-03-06T04:36:31;99700.84;;;3.03;100.00
85746;BME280;76186;47.590;19.194;2024-03-06T04:37:32;99706.19;;;2.98;100.00
85746;BME280;76186;47.590;19.194;2024-03-06T04:38:34;99706.75;;;3.00;100.00
85746;BME280;76186;47.590;19.194;2024-03-06T04:39:34;99708.16;;;3.08;100.00
85746;BME280;76186;47.590;19.194;2024-03-06T04:40:35;99710.53;;;3.04;100.00
85746;BME280;76186;47.590;19.194;2024-03-06T04:41:35;99706.22;;;3.03;100.00
85746;BME280;76186;47.590;19.194;2024-03-06T04:42:36;99707.03;;;3.03;100.00
85746;BME280;76186;47.590;19.194;2024-03-06T04:43:37;99715.09;;;3.03;100.00
85746;BME280;76186;47.590;19.194;2024-03-06T04:44:38;99708.69;;;3.10;100.00
85746;BME280;76186;47.590;19.194;2024-03-06T04:45:39;99706.56;;;3.12;100.00
85746;BME280;76186;47.590;19.194;2024-03-06T04:46:39;99713.81;;;3.11;100.00
85746;BME280;76186;47.590;19.194;2024-03-06T04:47:40;99721.38;;;3.19;100.00
85746;BME280;76186;47.590;19.194;2024-03-06T04:48:41;99708.47;;;3.16;100.00
85746;BME280;76186;47.590;19.194;2024-03-06T04:49:41;99712.78;;;3.17;100.00
85746;BME280;76186;47.590;19.194;2024-03-06T04:50:42;99716.53;;;3.16;100.00
85746;BME280;76186;47.590;19.194;2024-03-06T04:51:43;99713.31;;;3.19;100.00
85746;BME280;76186;47.590;19.194;2024-03-06T04:52:44;99709.59;;;3.25;100.00
85746;BME280;76186;47.590;19.194;2024-03-06T04:53:48;99714.44;;;3.28;100.00
85746;BME280;76186;47.590;19.194;2024-03-06T04:54:48;99710.75;;;3.39;100.00
85746;BME280;76186;47.590;19.194;2024-03-06T04:55:49;99715.34;;;3.39;100.00
85746;BME280;76186;47.590;19.194;2024-03-06T04:56:50;99712.38;;;3.41;100.00
85746;BME280;76186;47.590;19.194;2024-03-06T04:57:52;99714.00;;;3.42;100.00
85746;BME280;76186;47.590;19.194;2024-03-06T04:58:53;99717.47;;;3.37;100.00
85746;BME280;76186;47.590;19.194;2024-03-06T04:59:54;99719.31;;;3.31;100.00
85746;BME280;76186;47.590;19.194;2024-03-06T05:00:54;99719.31;;;3.31;100.00
85746;BME280;76186;47.590;19.194;2024-03-06T05:01:55;99720.94;;;3.32;100.00
85746;BME280;76186;47.590;19.194;2024-03-06T05:02:56;99715.56;;;3.32;100.00
85746;BME280;76186;47.590;19.194;2024-03-06T05:03:56;99721.78;;;3.38;100.00
85746;BME280;76186;47.590;19.194;2024-03-06T05:04:57;99721.28;;;3.46;100.00
85746;BME280;76186;47.590;19.194;2024-03-06T05:05:57;99721.56;;;3.45;100.00
85746;BME280;76186;47.590;19.194;2024-03-06T05:06:58;99729.06;;;3.48;100.00
85746;BME280;76186;47.590;19.194;2024-03-06T05:07:59;99718.31;;;3.48;100.00
85746;BME280;76186;47.590;19.194;2024-03-06T05:08:59;99732.03;;;3.41;100.00
85746;BME280;76186;47.590;19.194;2024-03-06T05:10:01;99726.88;;;3.34;100.00
85746;BME280;76186;47.590;19.194;2024-03-06T05:11:02;99728.44;;;3.30;100.00
85746;BME280;76186;47.590;19.194;2024-03-06T05:12:02;99732.19;;;3.29;100.00
85746;BME280;76186;47.590;19.194;2024-03-06T05:13:03;99731.09;;;3.25;100.00
85746;BME280;76186;47.590;19.194;2024-03-06T05:14:05;99728.91;;;3.22;100.00
85746;BME280;76186;47.590;19.194;2024-03-06T05:15:06;99729.44;;;3.19;100.00
85746;BME280;76186;47.590;19.194;2024-03-06T05:16:08;99730.22;;;3.15;100.00
85746;BME280;76186;47.590;19.194;2024-03-06T05:17:09;99731.31;;;3.14;100.00
85746;BME280;76186;47.590;19.194;2024-03-06T05:18:10;99732.06;;;3.09;99.90
85746;BME280;76186;47.590;19.194;2024-03-06T05:19:11;99730.44;;;3.08;100.00
85746;BME280;76186;47.590;19.194;2024-03-06T05:20:12;99733.69;;;3.10;100.00
85746;BME280;76186;47.590;19.194;2024-03-06T05:21:12;99739.06;;;3.10;100.00